createdAt,value
2019-04-30T00:00:38.971Z,7.85
2019-04-30T00:05:57.343Z,9.35
2019-04-30T00:08:25.785Z,9.38
2019-04-30T00:10:55.491Z,11.10
2019-04-30T00:13:25.765Z,11.43
2019-04-30T00:15:58.714Z,9.33
2019-04-30T00:18:25.487Z,13.38
2019-04-30T00:20:55.413Z,10.05
2019-04-30T00:23:27.114Z,10.03
2019-04-30T00:25:58.371Z,10.43
2019-04-30T00:28:25.415Z,13.90
2019-04-30T00:30:56.069Z,9.05
2019-04-30T00:33:27.491Z,9.43
2019-04-30T00:35:57.861Z,9.28
2019-04-30T00:38:25.353Z,10.25
2019-04-30T00:40:55.736Z,10.80
2019-04-30T00:43:25.222Z,8.85
2019-04-30T00:45:55.134Z,10.30
2019-04-30T00:48:27.985Z,9.20
2019-04-30T00:50:55.637Z,9.50
2019-04-30T00:53:23.662Z,9.48
2019-04-30T00:55:52.018Z,10.18
2019-04-30T00:58:25.864Z,9.20
2019-04-30T01:01:07.388Z,9.73
2019-04-30T01:03:39.464Z,10.60
2019-04-30T01:06:05.737Z,12.50
2019-04-30T01:08:35.808Z,12.47
2019-04-30T01:11:09.375Z,8.95
2019-04-30T01:13:34.903Z,10.32
2019-04-30T01:16:03.442Z,8.90
2019-04-30T01:18:32.145Z,8.20
2019-04-30T01:21:02.972Z,10.45
2019-04-30T01:23:30.490Z,10.82
2019-04-30T01:25:58.740Z,10.68
2019-04-30T01:28:28.399Z,10.43
2019-04-30T01:31:01.741Z,9.15
2019-04-30T01:33:34.663Z,11.08
2019-04-30T01:35:59.685Z,16.77
2019-04-30T01:38:28.663Z,9.80
2019-04-30T01:40:57.189Z,13.65
2019-04-30T01:43:31.717Z,13.22
2019-04-30T01:45:55.875Z,11.73
2019-04-30T01:48:25.125Z,14.47
2019-04-30T01:50:53.385Z,11.20
2019-04-30T01:53:21.677Z,9.10
2019-04-30T01:55:51.936Z,11.63
2019-04-30T01:58:37.146Z,10.63
2019-04-30T02:01:19.092Z,11.70
2019-04-30T02:03:48.699Z,10.23
2019-04-30T02:06:17.022Z,12.47
2019-04-30T02:08:45.320Z,11.50
2019-04-30T02:11:13.623Z,12.65
2019-04-30T02:13:41.895Z,15.38
2019-04-30T02:16:10.151Z,13.18
2019-04-30T02:18:39.409Z,11.80
2019-04-30T02:21:08.987Z,10.90
2019-04-30T02:23:39.230Z,9.33
2019-04-30T02:26:08.671Z,12.73
2019-04-30T02:28:36.994Z,13.15
2019-04-30T02:31:05.428Z,10.00
2019-04-30T02:33:35.510Z,13.45
2019-04-30T02:36:05.403Z,14.03
2019-04-30T02:38:39.635Z,11.30
2019-04-30T02:41:09.861Z,11.63
2019-04-30T02:43:39.830Z,11.63
2019-04-30T02:46:09.652Z,11.33
2019-04-30T02:48:39.634Z,11.25
2019-04-30T02:51:10.101Z,9.55
2019-04-30T02:54:00.576Z,10.50
2019-04-30T02:56:30.037Z,13.65
2019-04-30T02:59:00.481Z,14.05
2019-04-30T03:01:30.524Z,11.55
2019-04-30T03:03:59.844Z,12.82
2019-04-30T03:06:30.343Z,13.80
2019-04-30T03:09:01.073Z,14.63
2019-04-30T03:11:30.084Z,11.38
2019-04-30T03:13:59.308Z,11.85
2019-04-30T03:16:30.325Z,11.70
2019-04-30T03:19:06.378Z,11.70
2019-04-30T03:21:42.158Z,13.83
2019-04-30T03:24:11.143Z,13.43
2019-04-30T03:26:40.221Z,13.60
2019-04-30T03:29:11.350Z,11.60
2019-04-30T03:31:43.785Z,13.45
2019-04-30T03:34:16.748Z,13.93
2019-04-30T03:36:40.386Z,16.45
2019-04-30T03:39:10.931Z,15.53
2019-04-30T03:41:41.223Z,15.88
2019-04-30T03:44:20.843Z,14.60
2019-04-30T03:46:40.229Z,15.28
2019-04-30T03:49:12.453Z,16.50
2019-04-30T03:51:40.269Z,16.80
2019-04-30T03:54:09.982Z,15.58
2019-04-30T03:56:39.934Z,18.10
2019-04-30T03:59:10.667Z,16.97
2019-04-30T04:01:43.837Z,19.30
2019-04-30T04:04:30.911Z,18.05
2019-04-30T04:07:01.099Z,19.23
2019-04-30T04:09:31.380Z,19.75
2019-04-30T04:12:01.261Z,20.80
2019-04-30T04:14:29.750Z,24.47
2019-04-30T04:17:00.062Z,24.85
2019-04-30T04:19:29.229Z,26.30
2019-04-30T04:21:59.958Z,22.50
2019-04-30T04:24:30.090Z,25.17
2019-04-30T04:26:59.670Z,26.27
2019-04-30T04:29:29.811Z,26.10
2019-04-30T04:32:00.737Z,28.67
2019-04-30T04:34:30.312Z,26.17
2019-04-30T04:37:00.086Z,28.47
2019-04-30T04:39:29.761Z,27.22
2019-04-30T04:41:59.952Z,26.33
2019-04-30T04:44:29.494Z,29.18
2019-04-30T04:47:00.183Z,27.07
2019-04-30T04:49:30.599Z,30.02
2019-04-30T04:51:59.182Z,27.17
2019-04-30T04:54:29.810Z,28.45
2019-04-30T04:57:11.011Z,30.72
2019-04-30T04:59:29.580Z,28.77
2019-04-30T05:01:59.834Z,26.52
2019-04-30T05:04:29.828Z,27.50
2019-04-30T05:07:00.118Z,32.15
2019-04-30T05:09:28.605Z,29.35
2019-04-30T05:11:58.576Z,31.20
2019-04-30T05:14:28.756Z,29.50
2019-04-30T05:16:58.642Z,30.40
2019-04-30T05:19:28.567Z,30.20
2019-04-30T05:21:56.955Z,30.15
2019-04-30T05:24:25.192Z,33.80
2019-04-30T05:26:53.512Z,29.67
2019-04-30T05:29:21.737Z,28.50
2019-04-30T05:31:49.999Z,27.48
2019-04-30T05:34:18.815Z,28.05
2019-04-30T05:36:49.002Z,29.00
2019-04-30T05:39:18.840Z,30.70
2019-04-30T05:41:49.202Z,28.07
2019-04-30T05:44:18.531Z,34.40
2019-04-30T05:46:46.987Z,30.27
2019-04-30T05:49:15.258Z,31.70
2019-04-30T05:51:54.886Z,31.27
2019-04-30T05:54:13.439Z,33.42
2019-04-30T05:56:42.800Z,33.05
2019-04-30T05:59:12.061Z,31.30
2019-04-30T06:01:47.855Z,31.33
2019-04-30T06:04:10.316Z,40.25
2019-04-30T06:06:38.955Z,35.92
2019-04-30T06:09:14.894Z,39.65
2019-04-30T06:11:56.144Z,39.55
2019-04-30T06:14:26.027Z,39.92
2019-04-30T06:17:10.913Z,36.50
2019-04-30T06:19:40.230Z,39.03
2019-04-30T06:22:10.795Z,39.03
2019-04-30T06:24:39.561Z,38.30
2019-04-30T06:27:10.555Z,40.38
2019-04-30T06:29:58.513Z,41.85
2019-04-30T06:32:26.941Z,43.40
2019-04-30T06:34:56.190Z,39.60
2019-04-30T06:37:24.397Z,40.48
2019-04-30T06:39:53.509Z,35.63
2019-04-30T06:42:22.701Z,40.73
2019-04-30T06:44:50.955Z,40.67
2019-04-30T06:47:32.003Z,33.73
2019-04-30T06:49:49.135Z,40.65
2019-04-30T06:52:22.751Z,32.65
2019-04-30T06:54:47.310Z,35.43
2019-04-30T06:57:15.536Z,35.45
2019-04-30T06:59:43.971Z,33.63
2019-04-30T07:02:12.199Z,34.85
2019-04-30T07:04:40.429Z,39.20
2019-04-30T07:07:09.249Z,34.63
2019-04-30T07:09:51.287Z,38.28
2019-04-30T07:12:27.260Z,42.48
2019-04-30T07:14:49.456Z,37.75
2019-04-30T07:17:19.519Z,39.03
2019-04-30T07:19:55.729Z,39.10
2019-04-30T07:22:20.688Z,36.60
2019-04-30T07:24:49.452Z,39.67
2019-04-30T07:27:23.742Z,38.98
2019-04-30T07:29:49.526Z,40.83
2019-04-30T07:32:19.693Z,41.73
2019-04-30T07:34:49.495Z,40.88
2019-04-30T07:37:24.261Z,39.20
2019-04-30T07:39:49.318Z,40.38
2019-04-30T07:42:19.283Z,35.13
2019-04-30T07:44:50.019Z,37.23
2019-04-30T07:47:19.427Z,35.10
2019-04-30T07:49:54.313Z,32.35
2019-04-30T07:52:21.515Z,28.98
2019-04-30T07:54:51.564Z,29.05
2019-04-30T07:57:19.347Z,27.07
2019-04-30T07:59:49.675Z,27.95
2019-04-30T08:02:20.562Z,25.52
2019-04-30T08:05:04.355Z,27.55
2019-04-30T08:07:32.721Z,25.17
2019-04-30T08:10:01.131Z,23.05
2019-04-30T08:12:34.298Z,26.70
2019-04-30T08:15:00.205Z,25.32
2019-04-30T08:17:28.963Z,22.62
2019-04-30T08:19:58.785Z,23.15
2019-04-30T08:22:29.588Z,24.90
2019-04-30T08:24:58.708Z,21.93
2019-04-30T08:27:29.369Z,24.92
2019-04-30T08:29:59.086Z,22.80
2019-04-30T08:32:28.899Z,21.45
2019-04-30T08:35:00.985Z,24.30
2019-04-30T08:37:28.837Z,20.32
2019-04-30T08:40:00.225Z,21.85
2019-04-30T08:42:33.782Z,19.45
2019-04-30T08:44:58.617Z,19.05
2019-04-30T08:47:28.965Z,19.70
2019-04-30T08:49:56.989Z,21.12
2019-04-30T08:52:26.089Z,21.48
2019-04-30T08:54:54.454Z,21.10
2019-04-30T08:57:22.687Z,22.50
2019-04-30T08:59:51.275Z,19.37
2019-04-30T09:02:19.871Z,19.62
2019-04-30T09:04:50.723Z,20.15
2019-04-30T09:07:19.657Z,17.67
2019-04-30T09:09:48.836Z,18.73
2019-04-30T09:12:19.582Z,18.15
2019-04-30T09:14:49.038Z,18.12
2019-04-30T09:17:19.705Z,17.55
2019-04-30T09:19:48.979Z,16.57
2019-04-30T09:22:19.302Z,20.40
2019-04-30T09:24:49.538Z,18.62
2019-04-30T09:27:19.345Z,18.25
2019-04-30T09:29:49.192Z,22.07
2019-04-30T09:32:19.333Z,20.00
2019-04-30T09:34:48.824Z,19.80
2019-04-30T09:37:18.678Z,18.98
2019-04-30T09:39:49.407Z,20.72
2019-04-30T09:42:19.567Z,15.75
2019-04-30T09:44:49.279Z,17.82
2019-04-30T09:47:17.618Z,18.98
2019-04-30T09:49:49.194Z,18.27
2019-04-30T09:52:19.312Z,19.52
2019-04-30T09:54:49.595Z,22.40
2019-04-30T09:57:19.358Z,17.37
2019-04-30T09:59:48.747Z,20.60
2019-04-30T10:02:18.908Z,19.12
2019-04-30T10:04:47.444Z,20.43
2019-04-30T10:07:16.013Z,20.77
2019-04-30T10:09:44.253Z,18.20
2019-04-30T10:12:14.190Z,20.45
2019-04-30T10:14:42.711Z,18.42
2019-04-30T10:17:12.585Z,21.12
2019-04-30T10:19:40.824Z,17.98
2019-04-30T10:22:09.116Z,19.45
2019-04-30T10:24:39.224Z,18.37
2019-04-30T10:27:13.024Z,16.55
2019-04-30T10:29:39.505Z,22.02
2019-04-30T10:32:08.807Z,18.67
2019-04-30T10:34:37.460Z,20.65
2019-04-30T10:37:05.722Z,19.25
2019-04-30T10:39:33.975Z,19.30
2019-04-30T10:42:02.559Z,20.10
2019-04-30T10:44:30.881Z,20.43
2019-04-30T10:46:59.398Z,22.67
2019-04-30T10:49:29.211Z,19.30
2019-04-30T10:52:00.804Z,18.77
2019-04-30T10:54:28.938Z,21.05
2019-04-30T10:56:59.161Z,18.95
2019-04-30T10:59:27.585Z,20.57
2019-04-30T11:01:55.893Z,20.55
2019-04-30T11:04:24.119Z,20.25
2019-04-30T11:06:52.543Z,21.15
2019-04-30T11:09:20.799Z,21.37
2019-04-30T11:11:49.731Z,19.10
2019-04-30T11:14:18.641Z,21.70
2019-04-30T11:16:49.078Z,19.00
2019-04-30T11:19:18.959Z,19.05
2019-04-30T11:21:47.131Z,20.62
2019-04-30T11:24:15.701Z,20.35
2019-04-30T11:26:45.020Z,19.25
2019-04-30T11:29:14.293Z,19.65
2019-04-30T11:31:44.634Z,18.25
2019-04-30T11:34:13.158Z,16.37
2019-04-30T11:36:41.557Z,20.48
2019-04-30T11:39:11.508Z,16.30
2019-04-30T11:41:39.750Z,19.50
2019-04-30T11:44:09.264Z,17.32
2019-04-30T11:46:55.733Z,16.52
2019-04-30T11:49:24.080Z,19.00
2019-04-30T11:51:52.321Z,18.57
2019-04-30T11:54:20.696Z,18.77
2019-04-30T11:56:50.467Z,21.70
2019-04-30T11:59:19.595Z,17.95
2019-04-30T12:01:49.647Z,19.57
2019-04-30T12:04:19.454Z,17.15
2019-04-30T12:06:48.015Z,17.98
2019-04-30T12:09:32.819Z,20.82
2019-04-30T12:12:01.127Z,19.17
2019-04-30T12:14:29.774Z,18.27
2019-04-30T12:16:58.028Z,18.45
2019-04-30T12:19:26.277Z,19.42
2019-04-30T12:21:54.499Z,19.95
2019-04-30T12:24:22.812Z,20.62
2019-04-30T12:26:51.072Z,19.98
2019-04-30T12:29:19.464Z,22.60
2019-04-30T12:31:47.693Z,19.75
2019-04-30T12:34:16.857Z,24.55
2019-04-30T12:36:45.077Z,26.20
2019-04-30T12:39:14.455Z,21.85
2019-04-30T12:41:42.695Z,23.67
2019-04-30T12:44:10.954Z,23.52
2019-04-30T12:46:39.198Z,22.82
2019-04-30T12:49:10.184Z,23.02
2019-04-30T12:51:50.527Z,21.90
2019-04-30T12:54:29.927Z,22.58
2019-04-30T12:57:11.609Z,22.77
2019-04-30T12:59:39.877Z,24.30
2019-04-30T13:02:09.133Z,25.77
2019-04-30T13:04:39.386Z,26.48
2019-04-30T13:07:09.795Z,24.37
2019-04-30T13:09:39.811Z,24.55
2019-04-30T13:12:10.043Z,24.72
2019-04-30T13:14:51.139Z,25.82
2019-04-30T13:17:07.808Z,28.50
2019-04-30T13:19:36.186Z,26.90
2019-04-30T13:22:04.444Z,23.30
2019-04-30T13:24:32.755Z,25.48
2019-04-30T13:27:01.200Z,26.10
2019-04-30T13:29:31.080Z,30.88
2019-04-30T13:31:59.333Z,22.82
2019-04-30T13:34:44.169Z,27.73
2019-04-30T13:37:12.600Z,34.88
2019-04-30T13:39:50.679Z,30.45
2019-04-30T13:42:26.074Z,26.75
2019-04-30T13:44:54.374Z,29.75
2019-04-30T13:47:22.596Z,25.95
2019-04-30T13:49:50.850Z,25.30
2019-04-30T13:52:19.097Z,25.02
2019-04-30T13:54:47.335Z,25.62
2019-04-30T13:57:15.568Z,30.52
2019-04-30T13:59:44.610Z,29.27
2019-04-30T14:02:12.916Z,26.65
2019-04-30T14:04:58.156Z,29.40
2019-04-30T14:07:39.980Z,32.03
2019-04-30T14:10:08.500Z,29.30
2019-04-30T14:12:39.083Z,26.82
2019-04-30T14:15:09.224Z,35.85
2019-04-30T14:17:39.356Z,33.35
2019-04-30T14:20:07.571Z,29.42
2019-04-30T14:22:35.846Z,27.73
2019-04-30T14:25:07.997Z,30.05
2019-04-30T14:27:48.795Z,35.60
2019-04-30T14:30:06.583Z,30.82
2019-04-30T14:32:34.815Z,37.98
2019-04-30T14:35:03.600Z,35.10
2019-04-30T14:37:31.968Z,32.70
2019-04-30T14:40:00.866Z,33.10
2019-04-30T14:42:32.049Z,30.45
2019-04-30T14:45:08.769Z,30.70
2019-04-30T14:47:40.945Z,35.25
2019-04-30T14:50:10.965Z,36.95
2019-04-30T14:52:40.967Z,28.95
2019-04-30T14:55:26.791Z,28.75
2019-04-30T14:58:02.865Z,38.58
2019-04-30T15:00:33.824Z,32.33
2019-04-30T15:03:03.753Z,34.48
2019-04-30T15:05:38.940Z,32.10
2019-04-30T15:08:02.426Z,29.48
2019-04-30T15:10:30.676Z,31.77
2019-04-30T15:13:00.225Z,30.15
2019-04-30T15:15:29.279Z,28.83
2019-04-30T15:17:59.208Z,30.37
2019-04-30T15:20:29.527Z,35.68
2019-04-30T15:23:18.969Z,36.90
2019-04-30T15:25:46.144Z,33.33
2019-04-30T15:28:14.367Z,32.38
2019-04-30T15:30:42.608Z,34.80
2019-04-30T15:33:14.946Z,33.80
2019-04-30T15:35:43.223Z,35.05
2019-04-30T15:38:12.455Z,30.40
2019-04-30T15:40:40.686Z,38.33
2019-04-30T15:43:08.975Z,34.48
2019-04-30T15:45:39.083Z,39.23
2019-04-30T15:48:08.607Z,38.75
2019-04-30T15:50:37.047Z,32.83
2019-04-30T15:53:05.939Z,40.70
2019-04-30T15:55:34.189Z,35.33
2019-04-30T15:58:06.811Z,38.35
2019-04-30T16:00:35.191Z,35.25
2019-04-30T16:03:10.996Z,34.05
2019-04-30T16:05:43.819Z,36.45
2019-04-30T16:11:00.174Z,37.98
2019-04-30T16:13:30.544Z,35.40
2019-04-30T16:15:59.146Z,37.23
2019-04-30T16:18:30.382Z,37.48
2019-04-30T16:20:59.412Z,37.93
2019-04-30T16:23:27.970Z,39.53
2019-04-30T16:25:56.217Z,36.42
2019-04-30T16:28:24.511Z,40.05
2019-04-30T16:30:52.967Z,36.00
2019-04-30T16:33:21.283Z,37.75
2019-04-30T16:35:51.135Z,40.95
2019-04-30T16:38:20.956Z,39.18
2019-04-30T16:40:49.283Z,37.55
2019-04-30T16:43:18.623Z,41.02
2019-04-30T16:45:49.392Z,39.63
2019-04-30T16:48:19.336Z,40.45
2019-04-30T16:50:48.928Z,38.30
2019-04-30T16:53:17.648Z,36.60
2019-04-30T16:55:45.985Z,39.95
2019-04-30T16:58:14.227Z,36.48
2019-04-30T17:00:42.520Z,36.42
2019-04-30T17:03:24.789Z,39.80
2019-04-30T17:06:00.528Z,41.30
2019-04-30T17:08:39.320Z,37.58
2019-04-30T17:11:18.269Z,41.50
2019-04-30T17:13:52.797Z,41.58
2019-04-30T17:16:23.518Z,42.27
2019-04-30T17:18:51.846Z,36.88
2019-04-30T17:21:20.167Z,43.58
2019-04-30T17:23:50.591Z,43.85
2019-04-30T17:26:19.006Z,44.18
2019-04-30T17:28:47.963Z,44.65
2019-04-30T17:31:17.283Z,43.45
2019-04-30T17:33:45.623Z,45.33
2019-04-30T17:36:14.019Z,47.90
2019-04-30T17:38:42.245Z,45.00
2019-04-30T17:41:10.528Z,47.43
2019-04-30T17:43:39.424Z,47.27
2019-04-30T17:46:08.830Z,42.20
2019-04-30T17:48:37.057Z,44.48
2019-04-30T17:51:05.291Z,45.15
2019-04-30T17:53:34.703Z,48.25
2019-04-30T17:56:02.973Z,45.90
2019-04-30T17:58:31.210Z,44.65
2019-04-30T18:01:01.089Z,48.50
2019-04-30T18:03:29.323Z,50.85
2019-04-30T18:05:59.218Z,51.05
2019-04-30T18:08:28.392Z,49.83
2019-04-30T18:10:56.711Z,50.00
2019-04-30T18:13:24.928Z,45.48
2019-04-30T18:15:53.199Z,48.65
2019-04-30T18:18:30.864Z,50.05
2019-04-30T18:21:03.482Z,48.85
2019-04-30T18:23:39.361Z,49.35
2019-04-30T18:26:11.913Z,49.53
2019-04-30T18:28:40.250Z,46.98
2019-04-30T18:31:08.913Z,45.73
2019-04-30T18:33:37.309Z,45.48
2019-04-30T18:36:05.533Z,36.95
2019-04-30T18:38:33.847Z,41.55
2019-04-30T18:41:02.072Z,44.77
2019-04-30T18:43:31.323Z,45.30
2019-04-30T18:46:00.754Z,44.88
2019-04-30T18:48:29.500Z,46.98
2019-04-30T18:50:57.904Z,47.40
2019-04-30T18:53:28.579Z,45.35
2019-04-30T18:55:59.056Z,48.05
2019-04-30T18:58:37.492Z,44.27
2019-04-30T19:00:59.174Z,45.88
2019-04-30T19:03:29.179Z,46.02
2019-04-30T19:06:01.432Z,42.33
2019-04-30T19:08:34.244Z,45.35
2019-04-30T19:11:22.377Z,44.93
2019-04-30T19:14:04.351Z,50.15
2019-04-30T19:16:53.556Z,47.35
2019-04-30T19:19:29.625Z,47.70
2019-04-30T19:21:58.674Z,46.85
2019-04-30T19:24:27.072Z,49.88
2019-04-30T19:26:55.362Z,47.13
2019-04-30T19:29:23.591Z,46.05
2019-04-30T19:31:52.005Z,47.30
2019-04-30T19:34:20.219Z,49.83
2019-04-30T19:36:49.223Z,49.25
2019-04-30T19:39:19.518Z,50.70
2019-04-30T19:41:49.007Z,52.95
2019-04-30T19:44:20.644Z,55.03
2019-04-30T19:46:48.793Z,49.27
2019-04-30T19:49:19.111Z,50.33
2019-04-30T19:51:47.185Z,52.58
2019-04-30T19:54:18.930Z,51.60
2019-04-30T19:59:21.530Z,49.30
2019-04-30T20:01:49.768Z,47.38
2019-04-30T20:04:18.579Z,48.80
2019-04-30T20:06:48.760Z,47.95
2019-04-30T20:09:19.282Z,48.02
2019-04-30T20:11:49.262Z,44.98
2019-04-30T20:14:18.648Z,45.92
2019-04-30T20:16:48.633Z,46.45
2019-04-30T20:19:17.111Z,44.25
2019-04-30T20:21:50.812Z,50.60
2019-04-30T20:24:15.318Z,51.88
2019-04-30T20:26:43.548Z,50.50
2019-04-30T20:29:11.846Z,50.50
2019-04-30T20:31:40.058Z,51.13
2019-04-30T20:34:09.154Z,51.33
2019-04-30T20:36:38.880Z,52.95
2019-04-30T20:39:09.279Z,52.25
2019-04-30T20:41:39.523Z,54.45
2019-04-30T20:44:08.710Z,52.58
2019-04-30T20:46:39.338Z,51.48
2019-04-30T20:49:09.071Z,57.80
2019-04-30T20:51:40.146Z,53.25
2019-04-30T20:54:09.119Z,59.80
2019-04-30T20:56:38.980Z,56.73
2019-04-30T20:59:10.229Z,51.63
2019-04-30T21:01:39.213Z,58.78
2019-04-30T21:04:07.527Z,68.52
2019-04-30T21:06:36.751Z,62.15
2019-04-30T21:09:06.132Z,66.45
2019-04-30T21:11:34.438Z,65.25
2019-04-30T21:14:02.653Z,69.75
2019-04-30T21:16:30.901Z,64.82
2019-04-30T21:18:59.156Z,64.80
2019-04-30T21:21:28.739Z,70.87
2019-04-30T21:23:57.236Z,66.97
2019-04-30T21:26:25.485Z,70.78
2019-04-30T21:28:53.724Z,66.30
2019-04-30T21:31:35.939Z,68.07
2019-04-30T21:34:12.303Z,62.97
2019-04-30T21:36:40.626Z,64.25
2019-04-30T21:39:09.084Z,67.53
2019-04-30T21:41:39.541Z,72.85
2019-04-30T21:44:08.047Z,72.35
2019-04-30T21:46:37.589Z,79.30
2019-04-30T21:49:06.240Z,79.77
2019-04-30T21:51:34.487Z,85.90
2019-04-30T21:54:02.707Z,92.82
2019-04-30T21:56:30.954Z,89.07
2019-04-30T21:58:59.176Z,83.72
2019-04-30T22:01:27.800Z,85.65
2019-04-30T22:03:56.019Z,84.45
2019-04-30T22:06:24.418Z,75.00
2019-04-30T22:08:52.645Z,80.90
2019-04-30T22:11:20.906Z,67.67
2019-04-30T22:13:49.453Z,73.25
2019-04-30T22:16:20.054Z,70.25
2019-04-30T22:18:47.695Z,77.15
2019-04-30T22:21:15.937Z,70.75
2019-04-30T22:23:44.161Z,75.90
2019-04-30T22:26:12.416Z,73.55
2019-04-30T22:28:41.292Z,70.92
2019-04-30T22:31:09.728Z,68.40
2019-04-30T22:33:39.178Z,71.00
2019-04-30T22:36:10.887Z,73.62
2019-04-30T22:38:40.996Z,65.85
2019-04-30T22:41:09.238Z,64.53
2019-04-30T22:43:37.481Z,60.25
2019-04-30T22:46:16.340Z,64.55
2019-04-30T22:48:44.551Z,62.30
2019-04-30T22:51:13.062Z,58.52
2019-04-30T22:53:41.297Z,66.37
2019-04-30T22:56:09.617Z,63.20
2019-04-30T22:58:38.216Z,61.80
2019-04-30T23:01:23.080Z,64.60
2019-04-30T23:03:52.950Z,59.60
2019-04-30T23:06:21.184Z,62.30
2019-04-30T23:08:49.424Z,55.90
2019-04-30T23:11:17.793Z,53.25
2019-04-30T23:13:46.011Z,56.98
2019-04-30T23:16:14.264Z,52.95
2019-04-30T23:18:42.578Z,53.45
2019-04-30T23:21:10.835Z,53.30
2019-04-30T23:23:39.097Z,49.45
2019-04-30T23:26:07.403Z,52.55
2019-04-30T23:28:35.635Z,50.78
2019-04-30T23:31:03.895Z,49.15
2019-04-30T23:33:32.131Z,51.18
2019-04-30T23:36:00.365Z,49.98
2019-04-30T23:38:28.721Z,52.08
2019-04-30T23:40:56.961Z,50.73
2019-04-30T23:43:25.188Z,51.88
2019-04-30T23:45:53.430Z,53.02
2019-04-30T23:48:21.656Z,53.13
2019-04-30T23:50:50.982Z,51.42
2019-04-30T23:53:19.231Z,55.00
2019-04-30T23:55:47.553Z,53.17
2019-04-30T23:58:16.237Z,48.48
